Time;durP1;ratioP1;P1;durP2;ratioP2;P2;SDS_P1;SDS_P2;PMS_P1;PMS_P2;Temp;Humidity;BMP_temperature;BMP_pressure;BME280_temperature;BME280_humidity;BME280_pressure;Samples;Min_cycle;Max_cycle;Signal;HPM_P1;HPM_P2
2021/06/05 00:00:46;;;;;;;3.90;3.43;;;23.90;99.90;;;;;;5032976;28;20458;-70
2021/06/05 00:03:14;;;;;;;4.10;3.80;;;23.90;99.90;;;;;;5024970;28;20471;-71
2021/06/05 00:05:43;;;;;;;4.07;3.67;;;23.90;99.90;;;;;;5020131;28;20469;-71
2021/06/05 00:08:11;;;;;;;3.90;3.60;;;23.90;99.90;;;;;;5033444;28;20767;-71
2021/06/05 00:10:43;;;;;;;3.57;3.37;;;23.90;99.90;;;;;;5032379;28;20453;-71
2021/06/05 00:13:13;;;;;;;3.73;3.50;;;23.80;99.90;;;;;;5032721;28;20473;-71
2021/06/05 00:15:43;;;;;;;4.60;4.20;;;23.80;99.90;;;;;;5026094;28;20575;-71
2021/06/05 00:18:09;;;;;;;3.70;3.40;;;23.80;99.90;;;;;;5032776;28;20907;-71
2021/06/05 00:20:37;;;;;;;3.33;3.13;;;23.80;99.90;;;;;;5032669;28;20779;-71
2021/06/05 00:23:06;;;;;;;3.70;3.40;;;23.80;99.90;;;;;;5032029;28;20450;-71
2021/06/05 00:25:33;;;;;;;4.37;4.07;;;23.80;99.90;;;;;;5032430;28;20446;-71
2021/06/05 00:27:59;;;;;;;4.63;4.30;;;23.80;99.90;;;;;;5032489;28;20519;-71
2021/06/05 00:30:28;;;;;;;4.10;3.80;;;23.70;99.90;;;;;;5033187;28;20446;-71
2021/06/05 00:32:55;;;;;;;4.30;4.00;;;23.70;99.90;;;;;;5032774;28;20509;-71
2021/06/05 00:35:21;;;;;;;4.40;4.00;;;23.70;99.90;;;;;;5032558;28;20427;-71
2021/06/05 00:37:47;;;;;;;4.77;4.37;;;23.70;99.90;;;;;;5029345;28;20466;-70
2021/06/05 00:40:20;;;;;;;5.80;3.97;;;23.70;99.90;;;;;;5032351;28;20446;-71
2021/06/05 00:42:46;;;;;;;4.03;3.73;;;23.60;99.90;;;;;;5032056;28;20454;-70
2021/06/05 00:45:16;;;;;;;4.53;4.17;;;23.70;99.90;;;;;;5032964;28;20445;-70
2021/06/05 00:47:44;;;;;;;4.20;3.90;;;23.60;99.90;;;;;;5032511;28;20477;-70
2021/06/05 00:50:13;;;;;;;4.23;3.83;;;23.60;99.90;;;;;;5032738;28;20454;-71
2021/06/05 00:52:42;;;;;;;3.80;3.50;;;23.60;99.90;;;;;;5032194;28;20488;-70
2021/06/05 00:55:10;;;;;;;5.90;5.43;;;23.60;99.90;;;;;;5027581;28;20529;-70
2021/06/05 00:57:36;;;;;;;4.50;4.13;;;23.60;99.90;;;;;;5022630;28;20470;-71
2021/06/05 01:00:09;;;;;;;4.07;3.77;;;23.50;99.90;;;;;;5032201;28;20442;-70
2021/06/05 01:02:35;;;;;;;4.60;3.80;;;23.50;99.90;;;;;;5032098;28;20807;-69
2021/06/05 01:05:03;;;;;;;5.00;4.60;;;23.50;99.90;;;;;;5031893;28;20473;-70
2021/06/05 01:07:33;;;;;;;5.03;4.20;;;23.50;99.90;;;;;;5031804;28;20969;-70
2021/06/05 01:10:05;;;;;;;4.70;4.30;;;23.50;99.90;;;;;;5026266;28;21062;-70
2021/06/05 01:12:39;;;;;;;4.13;3.83;;;23.50;99.90;;;;;;5032167;28;20474;-70
2021/06/05 01:15:10;;;;;;;5.00;4.57;;;23.50;99.90;;;;;;5031846;28;20522;-70
2021/06/05 01:17:40;;;;;;;4.53;4.23;;;23.40;99.90;;;;;;5031845;28;20446;-71
2021/06/05 01:20:11;;;;;;;4.83;4.10;;;23.40;99.90;;;;;;5031483;28;20522;-70
2021/06/05 01:22:58;;;;;;;4.77;4.37;;;23.40;99.90;;;;;;5031761;28;20462;-71
2021/06/05 01:25:32;;;;;;;4.80;4.50;;;23.40;99.90;;;;;;5031837;28;20445;-70
2021/06/05 01:28:06;;;;;;;5.60;3.97;;;23.40;99.90;;;;;;5031282;28;20524;-70
2021/06/05 01:30:37;;;;;;;4.90;4.50;;;23.40;99.90;;;;;;5031612;28;20458;-71
2021/06/05 01:33:04;;;;;;;4.63;4.23;;;23.30;99.90;;;;;;5031715;28;20489;-71
2021/06/05 01:35:33;;;;;;;4.67;4.27;;;23.30;99.90;;;;;;5025165;28;20489;-71
2021/06/05 01:38:03;;;;;;;4.60;4.30;;;23.30;99.90;;;;;;5031664;28;20446;-71
2021/06/05 01:40:31;;;;;;;5.17;4.40;;;23.30;99.90;;;;;;5028768;28;20471;-71
2021/06/05 01:43:02;;;;;;;5.23;4.77;;;23.30;99.90;;;;;;5017685;28;20504;-71
2021/06/05 01:45:32;;;;;;;4.67;4.20;;;23.30;99.90;;;;;;5032073;28;20979;-71
2021/06/05 01:47:58;;;;;;;5.57;5.07;;;23.30;99.90;;;;;;5023860;28;20451;-71
2021/06/05 01:50:28;;;;;;;4.67;4.27;;;23.30;99.90;;;;;;5031981;28;20819;-71
2021/06/05 01:52:59;;;;;;;5.13;4.73;;;23.30;99.90;;;;;;5032061;28;20485;-70
2021/06/05 01:55:29;;;;;;;6.13;5.53;;;23.20;99.90;;;;;;5031387;28;20462;-70
2021/06/05 01:57:58;;;;;;;5.30;5.00;;;23.20;99.90;;;;;;5031672;28;20438;-70
2021/06/05 02:00:29;;;;;;;5.10;4.60;;;23.20;99.90;;;;;;5018438;28;20489;-70
2021/06/05 02:02:57;;;;;;;5.20;4.80;;;23.20;99.90;;;;;;5028114;28;20458;-70
2021/06/05 02:05:25;;;;;;;6.10;5.50;;;23.20;99.90;;;;;;5031039;28;20441;-71
2021/06/05 02:07:53;;;;;;;6.10;5.60;;;23.20;99.90;;;;;;5029362;28;20469;-70
2021/06/05 02:10:21;;;;;;;6.10;5.50;;;23.20;99.90;;;;;;5031752;28;20502;-71
2021/06/05 02:12:51;;;;;;;5.83;5.33;;;23.10;99.90;;;;;;5031288;28;20969;-71
2021/06/05 02:15:23;;;;;;;5.17;4.73;;;23.10;99.90;;;;;;5031298;28;20442;-70
2021/06/05 02:17:51;;;;;;;6.27;5.77;;;23.10;99.90;;;;;;5030465;28;20494;-71
2021/06/05 02:20:22;;;;;;;5.87;5.47;;;23.10;99.90;;;;;;5030680;28;20499;-71
2021/06/05 02:22:51;;;;;;;6.40;5.90;;;23.10;99.90;;;;;;5031255;28;20441;-70
2021/06/05 02:25:21;;;;;;;6.90;6.30;;;23.10;99.90;;;;;;5022225;28;20485;-71
2021/06/05 02:27:50;;;;;;;6.57;6.07;;;23.10;99.90;;;;;;5030723;28;20439;-71
2021/06/05 02:30:19;;;;;;;6.23;5.73;;;23.00;99.90;;;;;;5030558;28;20461;-71
2021/06/05 02:32:45;;;;;;;7.20;6.63;;;23.00;99.90;;;;;;5010906;28;20487;-71
2021/06/05 02:35:18;;;;;;;6.90;6.40;;;23.00;99.90;;;;;;5011530;28;20457;-71
2021/06/05 02:37:46;;;;;;;6.90;6.20;;;23.00;99.90;;;;;;5017848;28;20501;-70
2021/06/05 02:40:21;;;;;;;6.50;5.90;;;23.00;99.90;;;;;;5025592;28;20465;-70
2021/06/05 02:42:48;;;;;;;5.80;5.30;;;23.00;99.90;;;;;;5030432;28;20931;-71
2021/06/05 02:45:21;;;;;;;6.27;5.73;;;23.00;99.90;;;;;;5030426;28;20446;-70
2021/06/05 02:47:53;;;;;;;7.93;6.83;;;23.00;99.90;;;;;;5030508;28;20468;-70
2021/06/05 02:50:22;;;;;;;5.23;4.80;;;23.00;99.90;;;;;;5030722;28;20955;-70
2021/06/05 02:52:50;;;;;;;6.07;5.57;;;23.00;99.90;;;;;;5030612;28;21075;-70
2021/06/05 02:55:20;;;;;;;6.93;6.23;;;22.90;99.90;;;;;;5030803;28;20501;-70
2021/06/05 02:57:46;;;;;;;6.13;5.63;;;22.90;99.90;;;;;;5029394;28;20466;-70
2021/06/05 03:00:16;;;;;;;7.10;6.50;;;22.90;99.90;;;;;;5031145;28;20442;-71
2021/06/05 03:02:42;;;;;;;5.80;5.40;;;22.90;99.90;;;;;;5030809;28;20520;-70
2021/06/05 03:05:09;;;;;;;6.93;6.33;;;22.90;99.90;;;;;;5030924;28;20442;-71
2021/06/05 03:07:37;;;;;;;6.90;6.40;;;22.90;99.90;;;;;;5031187;28;20480;-71
2021/06/05 03:10:05;;;;;;;7.23;6.63;;;22.90;99.90;;;;;;5030327;28;20469;-71
2021/06/05 03:12:31;;;;;;;6.20;5.60;;;22.90;99.90;;;;;;5030858;28;20473;-72
2021/06/05 03:14:59;;;;;;;6.37;5.77;;;22.80;99.90;;;;;;5029540;28;20503;-70
2021/06/05 03:17:28;;;;;;;6.37;5.87;;;22.80;99.90;;;;;;5026602;28;20450;-71
2021/06/05 03:19:54;;;;;;;6.37;5.80;;;22.80;99.90;;;;;;5026249;28;20548;-71
2021/06/05 03:22:20;;;;;;;7.00;6.40;;;22.80;99.90;;;;;;5034750;28;20504;-71
2021/06/05 03:24:47;;;;;;;7.03;6.43;;;22.80;99.90;;;;;;5033504;28;20457;-72
2021/06/05 03:27:14;;;;;;;6.33;5.73;;;22.80;99.90;;;;;;5033424;28;20779;-72
2021/06/05 03:29:41;;;;;;;7.40;6.80;;;22.70;99.90;;;;;;5034371;28;20453;-71
2021/06/05 03:32:08;;;;;;;5.93;5.50;;;22.70;99.90;;;;;;5033583;28;20477;-71
2021/06/05 03:34:34;;;;;;;8.07;7.37;;;22.70;99.90;;;;;;5033434;28;20477;-71
2021/06/05 03:37:00;;;;;;;6.23;5.73;;;22.70;99.90;;;;;;5029385;28;20457;-71
2021/06/05 03:39:26;;;;;;;6.97;6.37;;;22.70;99.90;;;;;;5033480;28;20454;-71
2021/06/05 03:41:54;;;;;;;6.80;6.30;;;22.70;99.90;;;;;;5027415;28;20489;-71
2021/06/05 03:44:20;;;;;;;7.77;6.57;;;22.70;99.90;;;;;;5033873;28;20455;-71
2021/06/05 03:46:47;;;;;;;7.20;6.60;;;22.70;99.90;;;;;;5033709;28;20442;-71
2021/06/05 03:49:14;;;;;;;7.07;6.47;;;22.70;99.90;;;;;;5033104;28;20192;-71
2021/06/05 03:51:40;;;;;;;7.80;7.20;;;22.70;99.90;;;;;;5033394;28;20230;-71
2021/06/05 03:54:06;;;;;;;8.40;7.60;;;22.60;99.90;;;;;;5032653;28;20434;-71
2021/06/05 03:56:33;;;;;;;7.32;6.72;;;22.70;99.90;;;;;;5033567;28;20449;-71
2021/06/05 03:59:01;;;;;;;7.40;6.80;;;22.70;99.90;;;;;;5033600;28;20191;-71
2021/06/05 04:01:28;;;;;;;6.88;6.32;;;22.60;99.90;;;;;;5033484;28;20903;-72
2021/06/05 04:03:55;;;;;;;8.70;7.90;;;22.60;99.90;;;;;;5032800;28;20199;-71
2021/06/05 04:06:23;;;;;;;8.50;7.70;;;22.60;99.90;;;;;;5014126;28;20216;-70
2021/06/05 04:08:50;;;;;;;8.57;7.88;;;22.60;99.90;;;;;;5013515;28;20269;-70
2021/06/05 04:11:16;;;;;;;8.43;7.03;;;22.60;99.90;;;;;;5016214;28;20200;-70
2021/06/05 04:13:45;;;;;;;6.53;5.90;;;22.60;99.90;;;;;;5013541;28;20200;-70
2021/06/05 04:16:14;;;;;;;7.30;6.70;;;22.60;99.90;;;;;;5014063;28;20279;-70
2021/06/05 04:18:42;;;;;;;8.93;8.10;;;22.60;99.90;;;;;;5022176;28;20442;-71
2021/06/05 04:21:11;;;;;;;6.90;6.40;;;22.60;99.90;;;;;;5032269;28;20218;-71
2021/06/05 04:23:37;;;;;;;7.10;6.50;;;22.60;99.90;;;;;;5032150;28;20188;-71
2021/06/05 04:26:04;;;;;;;9.00;8.30;;;22.60;99.90;;;;;;5033093;28;20203;-72
2021/06/05 04:28:38;;;;;;;7.43;6.73;;;22.60;99.90;;;;;;5031991;28;20205;-70
2021/06/05 04:31:06;;;;;;;7.50;6.70;;;22.60;99.90;;;;;;5032363;28;20922;-71
2021/06/05 04:33:34;;;;;;;8.55;7.75;;;22.60;99.90;;;;;;5032726;28;20240;-70
2021/06/05 04:36:03;;;;;;;7.83;7.10;;;22.60;99.90;;;;;;5032485;28;20199;-70
2021/06/05 04:38:29;;;;;;;7.27;6.67;;;22.60;99.90;;;;;;5032598;28;20922;-71
2021/06/05 04:40:56;;;;;;;8.80;8.00;;;22.50;99.90;;;;;;5032592;28;20447;-70
2021/06/05 04:43:23;;;;;;;8.10;7.50;;;22.50;99.90;;;;;;5032457;28;20496;-71
2021/06/05 04:45:49;;;;;;;8.25;7.55;;;22.60;99.90;;;;;;5032166;28;20272;-70
2021/06/05 04:48:16;;;;;;;7.93;7.22;;;22.50;99.90;;;;;;5032344;28;20218;-70
2021/06/05 04:50:44;;;;;;;7.40;6.80;;;22.50;99.90;;;;;;5031928;28;20306;-71
2021/06/05 04:53:11;;;;;;;8.90;8.10;;;22.50;99.90;;;;;;5031920;28;20718;-71
2021/06/05 04:55:38;;;;;;;8.25;7.53;;;22.50;99.90;;;;;;5026718;28;20222;-71
2021/06/05 04:58:06;;;;;;;8.52;7.72;;;22.50;99.90;;;;;;5027190;28;20201;-72
2021/06/05 05:00:35;;;;;;;10.40;7.55;;;22.50;99.90;;;;;;5015284;28;20208;-71
2021/06/05 05:03:02;;;;;;;7.30;6.70;;;22.50;99.90;;;;;;5032587;28;20536;-71
2021/06/05 05:05:29;;;;;;;10.07;9.17;;;22.50;99.90;;;;;;5032187;28;20205;-71
2021/06/05 05:07:57;;;;;;;10.35;9.35;;;22.50;99.90;;;;;;5032316;28;20858;-71
2021/06/05 05:10:26;;;;;;;9.77;8.88;;;22.50;99.90;;;;;;5030571;28;20201;-71
2021/06/05 05:12:52;;;;;;;7.72;7.13;;;22.50;99.90;;;;;;5031425;28;20277;-70
2021/06/05 05:15:19;;;;;;;9.18;8.38;;;22.50;99.90;;;;;;5032345;28;20205;-71
2021/06/05 05:17:46;;;;;;;9.18;8.38;;;22.50;99.90;;;;;;5027765;28;20205;-71
2021/06/05 05:20:16;;;;;;;9.77;7.97;;;22.50;99.90;;;;;;5032669;28;20207;-70
2021/06/05 05:22:42;;;;;;;9.00;8.20;;;22.50;99.90;;;;;;5030272;28;20195;-71
2021/06/05 05:25:12;;;;;;;9.18;8.32;;;22.50;99.90;;;;;;5032015;28;20262;-71
2021/06/05 05:27:39;;;;;;;11.15;10.07;;;22.50;99.90;;;;;;5023424;28;20592;-71
2021/06/05 05:30:07;;;;;;;9.25;8.43;;;22.50;99.90;;;;;;5017468;28;20532;-71
2021/06/05 05:32:34;;;;;;;10.80;9.85;;;22.60;99.90;;;;;;5031470;28;20219;-71
2021/06/05 05:35:01;;;;;;;8.97;8.27;;;22.60;99.90;;;;;;5031150;28;20318;-69
2021/06/05 05:37:27;;;;;;;9.77;8.90;;;22.60;99.90;;;;;;5031625;28;20477;-70
2021/06/05 05:39:53;;;;;;;9.70;8.90;;;22.60;99.90;;;;;;5030148;28;20204;-70
2021/06/05 05:42:21;;;;;;;9.82;8.90;;;22.60;99.90;;;;;;5031218;28;20915;-71
2021/06/05 05:44:47;;;;;;;9.87;8.87;;;22.60;99.90;;;;;;5027404;28;20197;-71
2021/06/05 05:47:14;;;;;;;9.02;8.20;;;22.60;99.90;;;;;;5030159;28;20903;-71
2021/06/05 05:49:40;;;;;;;9.35;8.52;;;22.70;99.90;;;;;;5030080;28;20330;-71
2021/06/05 05:52:07;;;;;;;9.60;8.70;;;22.70;99.90;;;;;;5030860;28;20669;-71
2021/06/05 05:54:33;;;;;;;8.82;8.10;;;22.70;99.90;;;;;;5031238;28;20536;-71
2021/06/05 05:57:00;;;;;;;10.27;9.20;;;22.70;99.90;;;;;;5030643;28;20203;-71
2021/06/05 05:59:27;;;;;;;9.80;8.80;;;22.70;99.90;;;;;;5031525;28;20454;-71
2021/06/05 06:01:53;;;;;;;10.47;9.57;;;22.70;99.90;;;;;;5030603;28;20959;-71
2021/06/05 06:04:20;;;;;;;8.53;7.73;;;22.80;99.90;;;;;;5012603;28;20447;-71
2021/06/05 06:06:46;;;;;;;9.03;8.13;;;22.80;99.90;;;;;;5026063;28;20446;-71
2021/06/05 06:09:13;;;;;;;7.40;6.80;;;22.80;99.90;;;;;;5031523;28;20782;-71
2021/06/05 06:11:43;;;;;;;9.32;8.43;;;22.80;99.90;;;;;;5025325;28;20227;-71
2021/06/05 06:14:10;;;;;;;8.27;7.47;;;22.80;99.90;;;;;;5031482;28;20208;-71
2021/06/05 06:16:37;;;;;;;8.73;8.03;;;22.80;99.90;;;;;;5031351;28;20484;-71
2021/06/05 06:19:05;;;;;;;7.83;7.13;;;22.80;99.90;;;;;;5030970;28;20441;-70
2021/06/05 06:21:31;;;;;;;7.87;7.07;;;22.80;99.90;;;;;;5030569;28;20465;-71
2021/06/05 06:23:58;;;;;;;9.00;8.20;;;22.80;99.90;;;;;;5031539;28;21031;-71
2021/06/05 06:26:28;;;;;;;8.60;7.70;;;22.80;99.90;;;;;;5031126;28;20911;-70
2021/06/05 06:28:56;;;;;;;9.83;9.00;;;22.80;99.90;;;;;;5020129;28;20518;-71
2021/06/05 06:31:23;;;;;;;8.60;7.80;;;22.80;99.90;;;;;;5031342;28;20462;-71
2021/06/05 06:33:51;;;;;;;9.77;8.88;;;22.70;99.90;;;;;;5027609;28;20946;-70
2021/06/05 06:36:20;;;;;;;9.00;8.13;;;22.80;99.90;;;;;;5026151;28;20528;-70
2021/06/05 06:38:48;;;;;;;11.85;10.02;;;22.80;99.90;;;;;;5030462;28;20469;-70
2021/06/05 06:41:18;;;;;;;9.43;8.53;;;22.70;99.90;;;;;;5025166;28;20200;-70
2021/06/05 06:43:45;;;;;;;11.43;10.23;;;22.70;99.90;;;;;;5026771;28;20474;-70
2021/06/05 06:46:14;;;;;;;10.53;9.63;;;22.70;99.90;;;;;;5031288;28;20199;-70
2021/06/05 06:48:41;;;;;;;11.90;10.30;;;22.70;99.90;;;;;;5031278;28;20445;-70
2021/06/05 06:51:09;;;;;;;11.38;9.48;;;22.70;99.90;;;;;;5032018;28;20668;-70
2021/06/05 06:53:36;;;;;;;11.25;9.82;;;22.70;99.90;;;;;;5034400;28;20354;-70
2021/06/05 06:56:04;;;;;;;11.70;10.60;;;22.80;99.90;;;;;;5034450;28;20278;-70
2021/06/05 06:58:31;;;;;;;11.55;10.45;;;22.80;99.90;;;;;;5034772;28;20480;-69
2021/06/05 07:00:57;;;;;;;12.23;10.90;;;22.70;99.90;;;;;;5028458;28;20643;-70
2021/06/05 07:03:24;;;;;;;13.90;11.33;;;22.80;99.90;;;;;;5042247;28;20783;-71
2021/06/05 07:05:50;;;;;;;11.03;10.00;;;22.80;99.90;;;;;;5034511;28;21132;-70
2021/06/05 07:08:21;;;;;;;12.00;10.80;;;22.80;99.90;;;;;;5034561;28;20468;-69
2021/06/05 07:10:51;;;;;;;12.17;10.90;;;22.80;99.90;;;;;;5033488;28;20191;-71
2021/06/05 07:13:18;;;;;;;13.80;12.13;;;22.80;99.90;;;;;;5034176;28;20485;-70
2021/06/05 07:15:45;;;;;;;10.10;9.07;;;22.80;99.90;;;;;;5035365;28;20699;-71
2021/06/05 07:18:13;;;;;;;10.70;9.67;;;22.90;99.90;;;;;;5035296;28;20538;-70
2021/06/05 07:20:41;;;;;;;11.27;10.10;;;22.90;99.90;;;;;;5034250;28;20539;-70
2021/06/05 07:23:08;;;;;;;13.10;11.70;;;23.00;99.90;;;;;;5035318;28;20446;-70
2021/06/05 07:25:35;;;;;;;12.37;11.20;;;23.00;99.90;;;;;;5033770;28;20483;-71
2021/06/05 07:28:14;;;;;;;9.27;8.47;;;23.10;99.90;;;;;;5033829;28;20457;-70
2021/06/05 07:30:41;;;;;;;9.27;8.47;;;23.10;99.90;;;;;;5033862;28;20529;-71
2021/06/05 07:33:08;;;;;;;10.20;9.20;;;23.10;99.90;;;;;;5028724;28;20498;-70
2021/06/05 07:35:34;;;;;;;13.13;11.63;;;23.10;99.90;;;;;;5033897;28;20812;-70
2021/06/05 07:38:02;;;;;;;11.73;10.60;;;23.10;99.90;;;;;;5027631;28;20513;-70
2021/06/05 07:40:28;;;;;;;13.23;11.93;;;23.10;99.90;;;;;;5030557;28;21231;-70
2021/06/05 07:42:56;;;;;;;15.53;13.30;;;23.10;99.90;;;;;;5033985;28;20438;-70
2021/06/05 07:45:23;;;;;;;15.17;13.70;;;23.10;99.90;;;;;;5033514;28;20465;-70
2021/06/05 07:47:50;;;;;;;14.47;12.80;;;23.10;99.90;;;;;;5034227;28;20438;-70
2021/06/05 07:50:16;;;;;;;18.70;12.77;;;23.10;99.90;;;;;;5033754;28;20455;-70
2021/06/05 07:52:42;;;;;;;15.33;13.83;;;23.10;99.90;;;;;;5026702;28;20534;-70
2021/06/05 07:55:10;;;;;;;13.60;12.30;;;23.10;99.90;;;;;;5014562;28;20485;-71
2021/06/05 07:57:37;;;;;;;14.73;13.23;;;23.00;99.90;;;;;;5014863;28;20463;-70
2021/06/05 08:00:08;;;;;;;14.50;13.10;;;23.00;99.90;;;;;;5026519;28;20779;-70
2021/06/05 08:02:34;;;;;;;16.23;14.57;;;23.00;99.90;;;;;;5031645;28;20458;-70
2021/06/05 08:05:00;;;;;;;18.00;16.10;;;23.00;99.90;;;;;;5034959;28;20474;-70
2021/06/05 08:07:26;;;;;;;15.90;14.30;;;23.00;99.90;;;;;;5034220;28;20873;-70
2021/06/05 08:09:53;;;;;;;18.00;15.73;;;23.00;99.90;;;;;;5034696;28;20488;-70
2021/06/05 08:12:20;;;;;;;17.67;14.40;;;23.00;99.90;;;;;;5033568;28;20486;-70
2021/06/05 08:14:46;;;;;;;20.50;18.40;;;23.00;99.90;;;;;;5034190;28;20465;-70
2021/06/05 08:17:13;;;;;;;17.73;15.97;;;23.00;99.90;;;;;;5034750;28;20203;-70
2021/06/05 08:19:40;;;;;;;18.67;16.70;;;23.00;99.90;;;;;;5032111;28;20442;-70
2021/06/05 08:22:08;;;;;;;17.67;15.80;;;23.10;99.90;;;;;;5022871;28;20445;-70
2021/06/05 08:24:34;;;;;;;20.00;18.00;;;23.10;99.90;;;;;;5033457;28;20469;-69
2021/06/05 08:27:00;;;;;;;19.13;17.33;;;23.10;99.90;;;;;;5034225;28;20783;-70
2021/06/05 08:29:27;;;;;;;20.30;17.50;;;23.10;99.90;;;;;;5018612;28;20466;-70
2021/06/05 08:31:53;;;;;;;19.47;17.17;;;23.10;99.90;;;;;;5033259;28;20450;-70
2021/06/05 08:34:21;;;;;;;16.87;15.17;;;23.10;99.90;;;;;;5030845;28;20840;-70
2021/06/05 08:36:47;;;;;;;15.80;14.30;;;23.10;99.90;;;;;;5033829;28;20474;-70
2021/06/05 08:39:14;;;;;;;17.83;16.10;;;23.10;99.90;;;;;;5033913;28;20442;-70
2021/06/05 08:41:46;;;;;;;19.50;17.20;;;23.10;99.90;;;;;;5032905;28;20458;-71
2021/06/05 08:44:16;;;;;;;20.53;18.53;;;23.10;99.90;;;;;;5033423;28;20449;-71
2021/06/05 08:46:46;;;;;;;18.00;16.20;;;23.20;99.90;;;;;;5033838;28;20460;-72
2021/06/05 08:49:17;;;;;;;19.97;17.83;;;23.20;99.90;;;;;;5030803;28;20458;-71
2021/06/05 08:51:58;;;;;;;19.27;17.27;;;23.20;99.90;;;;;;5032961;28;20573;-70
2021/06/05 08:54:36;;;;;;;19.10;17.00;;;23.20;99.90;;;;;;5033160;28;20462;-70
2021/06/05 08:57:08;;;;;;;20.20;17.60;;;23.20;99.90;;;;;;5032866;28;20756;-70
2021/06/05 08:59:35;;;;;;;20.90;18.60;;;23.20;99.90;;;;;;5032791;28;20466;-70
2021/06/05 09:02:03;;;;;;;20.83;18.73;;;23.20;99.90;;;;;;5032684;28;20457;-71
2021/06/05 09:04:30;;;;;;;20.10;17.97;;;23.20;99.90;;;;;;5032088;28;20458;-71
2021/06/05 09:07:03;;;;;;;19.07;17.30;;;23.20;99.90;;;;;;5032767;28;20496;-70
2021/06/05 09:09:33;;;;;;;20.10;18.13;;;23.20;99.90;;;;;;5031442;28;20462;-70
2021/06/05 09:12:01;;;;;;;21.50;18.30;;;23.20;99.90;;;;;;5031296;28;20963;-70
2021/06/05 09:14:28;;;;;;;19.30;17.30;;;23.20;99.90;;;;;;5032166;28;20465;-70
2021/06/05 09:16:55;;;;;;;19.23;16.70;;;23.30;99.90;;;;;;5031680;28;20457;-70
2021/06/05 09:19:28;;;;;;;20.70;18.50;;;23.30;99.90;;;;;;5031063;28;20450;-70
2021/06/05 09:22:01;;;;;;;20.77;17.70;;;23.30;99.90;;;;;;5031633;28;20439;-71
2021/06/05 09:24:33;;;;;;;19.20;17.40;;;23.30;99.90;;;;;;5017412;28;20503;-71
2021/06/05 09:27:11;;;;;;;20.30;18.20;;;23.30;99.90;;;;;;5012769;28;20451;-71
2021/06/05 09:29:51;;;;;;;21.33;19.23;;;23.30;99.90;;;;;;5029032;28;20450;-70
2021/06/05 09:32:20;;;;;;;18.47;16.60;;;23.30;99.90;;;;;;5031385;28;20477;-70
2021/06/05 09:34:50;;;;;;;19.47;17.60;;;23.30;99.90;;;;;;5031434;28;20485;-70
2021/06/05 09:37:37;;;;;;;20.00;18.00;;;23.30;99.90;;;;;;5032409;28;20471;-70
2021/06/05 09:40:17;;;;;;;20.10;17.83;;;23.30;99.90;;;;;;5031800;28;20834;-69
2021/06/05 09:42:46;;;;;;;20.67;18.63;;;23.30;99.90;;;;;;5016752;28;20446;-69
2021/06/05 09:45:23;;;;;;;24.10;19.13;;;23.30;99.90;;;;;;5030478;28;20469;-70
2021/06/05 09:47:50;;;;;;;21.70;19.40;;;23.30;99.90;;;;;;5031711;28;20910;-69
2021/06/05 09:50:22;;;;;;;21.10;18.30;;;23.30;99.90;;;;;;5031360;28;20446;-70
2021/06/05 09:52:48;;;;;;;20.90;18.63;;;23.30;99.90;;;;;;5031254;28;20489;-70
2021/06/05 09:55:36;;;;;;;18.10;16.33;;;23.40;99.90;;;;;;5031769;28;20445;-70
2021/06/05 09:58:08;;;;;;;19.83;17.73;;;23.40;99.90;;;;;;5026708;28;20458;-70
2021/06/05 10:00:37;;;;;;;20.60;18.53;;;23.40;99.90;;;;;;5029055;28;20902;-70
2021/06/05 10:03:21;;;;;;;25.30;20.20;;;23.40;99.90;;;;;;5032426;28;20461;-70
2021/06/05 10:05:49;;;;;;;22.73;18.80;;;23.40;99.90;;;;;;5029339;28;20771;-70
2021/06/05 10:08:32;;;;;;;19.83;17.73;;;23.40;99.90;;;;;;5032812;28;20446;-70
2021/06/05 10:11:06;;;;;;;19.77;17.77;;;23.40;99.90;;;;;;5031359;28;20496;-70
2021/06/05 10:13:36;;;;;;;21.80;18.43;;;23.40;99.90;;;;;;5030455;28;20477;-69
2021/06/05 10:16:08;;;;;;;20.33;18.27;;;23.40;99.90;;;;;;5032100;28;20760;-69
2021/06/05 10:18:40;;;;;;;22.47;20.17;;;23.40;99.90;;;;;;5031119;28;20461;-70
2021/06/05 10:21:11;;;;;;;20.97;18.80;;;23.40;99.90;;;;;;5017166;28;20782;-71
2021/06/05 10:23:39;;;;;;;20.10;18.13;;;23.40;99.90;;;;;;5018042;28;20449;-70
2021/06/05 10:26:23;;;;;;;20.83;18.67;;;23.40;99.90;;;;;;5030496;28;20476;-71
2021/06/05 10:28:54;;;;;;;23.33;21.00;;;23.40;99.90;;;;;;5030304;28;20942;-71
2021/06/05 10:31:23;;;;;;;20.70;18.43;;;23.40;99.90;;;;;;5031818;28;20434;-70
2021/06/05 10:33:55;;;;;;;21.80;19.50;;;23.40;99.90;;;;;;5026326;28;20858;-69
2021/06/05 10:36:26;;;;;;;21.47;19.37;;;23.40;99.90;;;;;;5029614;28;20486;-69
2021/06/05 10:38:54;;;;;;;21.03;18.80;;;23.40;99.90;;;;;;5026503;28;20477;-70
2021/06/05 10:41:25;;;;;;;23.17;20.80;;;23.40;99.90;;;;;;5021394;28;20455;-71
2021/06/05 10:43:53;;;;;;;21.93;19.80;;;23.50;99.90;;;;;;5024129;28;20906;-72
2021/06/05 10:46:31;;;;;;;26.53;23.83;;;23.50;99.90;;;;;;5031344;28;20489;-72
2021/06/05 10:49:08;;;;;;;25.97;23.13;;;23.50;99.90;;;;;;5031172;28;20442;-71
2021/06/05 10:51:36;;;;;;;23.20;20.43;;;23.60;99.90;;;;;;5031305;28;20456;-70
2021/06/05 10:54:05;;;;;;;21.40;19.00;;;23.60;99.90;;;;;;5030584;28;20495;-70
2021/06/05 10:56:37;;;;;;;23.20;20.27;;;23.70;99.90;;;;;;5031360;28;20492;-70
2021/06/05 10:59:05;;;;;;;22.50;20.20;;;23.70;99.90;;;;;;5031100;28;20532;-69
2021/06/05 11:01:48;;;;;;;23.70;20.60;;;23.70;99.90;;;;;;5031621;28;20454;-70
2021/06/05 11:04:39;;;;;;;20.60;18.47;;;23.80;99.90;;;;;;5024729;28;20446;-69
2021/06/05 11:07:33;;;;;;;21.47;19.37;;;23.80;99.90;;;;;;5029794;28;20457;-70
2021/06/05 11:10:05;;;;;;;21.90;18.37;;;23.80;99.90;;;;;;5001943;28;20454;-70
2021/06/05 11:12:51;;;;;;;24.37;21.90;;;23.80;99.90;;;;;;5030167;28;20482;-69
2021/06/05 11:15:54;;;;;;;26.30;22.27;;;23.90;99.90;;;;;;5028629;28;20503;-70
2021/06/05 11:18:27;;;;;;;22.10;19.83;;;23.90;99.90;;;;;;4988485;28;20836;-68
2021/06/05 11:20:54;;;;;;;22.90;20.40;;;23.90;99.90;;;;;;5024391;28;20516;-70
2021/06/05 11:23:23;;;;;;;25.17;22.57;;;23.90;99.90;;;;;;5028163;28;20488;-68
2021/06/05 11:25:51;;;;;;;22.67;19.47;;;23.90;99.90;;;;;;5030571;28;20772;-69
2021/06/05 11:28:49;;;;;;;24.13;21.33;;;24.00;99.90;;;;;;5030279;28;20500;-70
2021/06/05 11:31:41;;;;;;;23.50;20.10;;;24.00;99.90;;;;;;5030344;28;20942;-70
2021/06/05 11:34:10;;;;;;;24.93;22.20;;;24.10;99.90;;;;;;5004291;28;20483;-72
2021/06/05 11:36:48;;;;;;;24.47;21.87;;;24.10;99.90;;;;;;5029091;28;20446;-71
2021/06/05 11:39:45;;;;;;;25.50;22.10;;;24.10;99.90;;;;;;5033722;28;20462;-70
2021/06/05 11:42:49;;;;;;;24.87;21.50;;;24.10;99.90;;;;;;5034456;28;20442;-71
2021/06/05 11:45:48;;;;;;;26.80;22.37;;;24.20;99.90;;;;;;5008498;28;20466;-71
2021/06/05 11:48:39;;;;;;;26.33;23.63;;;24.20;99.90;;;;;;5009923;28;20457;-71
2021/06/05 11:51:35;;;;;;;23.47;21.07;;;24.30;99.90;;;;;;5034803;28;20442;-71
2021/06/05 11:54:14;;;;;;;23.67;20.87;;;24.30;99.90;;;;;;5013767;28;20479;-71
2021/06/05 11:56:45;;;;;;;26.43;23.47;;;24.30;99.90;;;;;;5032238;28;20905;-71
2021/06/05 11:59:19;;;;;;;24.80;22.10;;;24.30;99.90;;;;;;5032982;28;20435;-69
2021/06/05 12:01:46;;;;;;;24.20;21.00;;;24.30;99.90;;;;;;5033844;28;20824;-71
2021/06/05 12:07:37;;;;;;;27.33;24.37;;;24.40;99.90;;;;;;5023164;28;20405;-72
2021/06/05 12:10:05;;;;;;;24.37;21.77;;;24.40;99.90;;;;;;5033009;28;20442;-72
2021/06/05 12:12:35;;;;;;;24.13;21.67;;;24.40;99.90;;;;;;5031881;28;20508;-72
2021/06/05 12:15:08;;;;;;;25.17;22.57;;;24.50;99.90;;;;;;5032914;28;21115;-71
2021/06/05 12:17:39;;;;;;;24.40;21.53;;;24.50;99.90;;;;;;5031375;28;20464;-70
2021/06/05 12:20:10;;;;;;;23.87;20.30;;;24.50;99.90;;;;;;5030765;28;20447;-71
2021/06/05 12:22:39;;;;;;;23.03;20.57;;;24.50;99.90;;;;;;5032372;28;20446;-71
2021/06/05 12:25:08;;;;;;;24.40;21.90;;;24.50;99.90;;;;;;5031764;28;20458;-71
2021/06/05 12:27:36;;;;;;;25.47;21.83;;;24.60;99.90;;;;;;5031961;28;20941;-70
2021/06/05 12:30:23;;;;;;;25.27;22.57;;;24.50;99.90;;;;;;5031667;28;20450;-70
2021/06/05 12:32:57;;;;;;;25.50;22.63;;;24.60;99.90;;;;;;5027502;28;20466;-70
2021/06/05 12:35:26;;;;;;;25.97;23.13;;;24.60;99.90;;;;;;5033910;28;20454;-70
2021/06/05 12:37:56;;;;;;;22.33;19.97;;;24.60;99.90;;;;;;5030003;28;20466;-71
2021/06/05 12:40:30;;;;;;;25.00;22.40;;;24.60;99.90;;;;;;5034015;28;20453;-70
2021/06/05 12:42:58;;;;;;;24.47;20.87;;;24.60;99.90;;;;;;5034550;28;20525;-70
2021/06/05 12:45:27;;;;;;;25.67;22.97;;;24.60;99.90;;;;;;5033530;28;20810;-70
2021/06/05 12:47:56;;;;;;;23.77;21.40;;;24.60;99.90;;;;;;5033785;28;20473;-70
2021/06/05 12:50:26;;;;;;;22.17;19.83;;;24.70;99.90;;;;;;5034085;28;20616;-72
2021/06/05 12:52:54;;;;;;;23.50;21.30;;;24.70;99.90;;;;;;5033365;28;20474;-71
2021/06/05 12:55:33;;;;;;;22.73;20.60;;;24.70;99.90;;;;;;5033773;28;20484;-70